Time;durP1;ratioP1;P1;durP2;ratioP2;P2;SDS_P1;SDS_P2;PMS_P1;PMS_P2;Temp;Humidity;BMP_temperature;BMP_pressure;BME280_temperature;BME280_humidity;BME280_pressure;Samples;Min_cycle;Max_cycle;Signal;HPM_P1;HPM_P2
2023/07/28 00:00:27;;;;;;;30.40;19.20;;;18.20;99.90;;;;;;4981849;28;20382;-70
2023/07/28 00:02:52;;;;;;;23.35;16.20;;;18.20;99.90;;;;;;4997783;28;20104;-70
2023/07/28 00:05:18;;;;;;;23.63;16.23;;;18.10;99.90;;;;;;5014450;28;20034;-69
2023/07/28 00:07:44;;;;;;;29.85;18.73;;;18.10;99.90;;;;;;4981508;28;20037;-70
2023/07/28 00:10:11;;;;;;;27.05;18.55;;;18.20;99.90;;;;;;4997673;28;20448;-71
2023/07/28 00:12:37;;;;;;;26.58;18.20;;;18.20;99.90;;;;;;5014151;28;20552;-70
2023/07/28 00:15:03;;;;;;;24.42;16.90;;;18.10;99.90;;;;;;4997741;28;20084;-70
2023/07/28 00:17:28;;;;;;;24.10;16.55;;;18.20;99.90;;;;;;5014823;28;20082;-70
2023/07/28 00:19:54;;;;;;;22.70;16.02;;;18.10;99.90;;;;;;4997512;28;20092;-70
2023/07/28 00:22:20;;;;;;;26.20;17.00;;;18.20;99.90;;;;;;4981178;28;20088;-70
2023/07/28 00:24:45;;;;;;;21.38;15.63;;;18.10;99.90;;;;;;4997483;28;20042;-70
2023/07/28 00:27:14;;;;;;;22.50;16.27;;;18.20;99.90;;;;;;4997365;28;20099;-70
2023/07/28 00:29:41;;;;;;;24.73;17.73;;;18.10;99.90;;;;;;4982018;28;20488;-70
2023/07/28 00:32:07;;;;;;;23.92;16.95;;;18.10;99.90;;;;;;4997399;28;20068;-70
2023/07/28 00:34:32;;;;;;;22.50;16.35;;;18.10;99.90;;;;;;4997587;28;20402;-70
2023/07/28 00:36:58;;;;;;;23.52;16.73;;;18.10;99.90;;;;;;4997145;28;20038;-70
2023/07/28 00:39:24;;;;;;;22.15;17.25;;;18.10;99.90;;;;;;4997196;28;20046;-70
2023/07/28 00:41:49;;;;;;;28.90;19.90;;;18.10;99.90;;;;;;4981273;28;20129;-70
2023/07/28 00:44:17;;;;;;;30.38;21.20;;;18.10;99.90;;;;;;4997017;28;20052;-70
2023/07/28 00:46:43;;;;;;;23.70;18.48;;;18.10;99.90;;;;;;5013431;28;20050;-70
2023/07/28 00:49:09;;;;;;;28.38;21.48;;;18.10;99.90;;;;;;4996853;28;20099;-70
2023/07/28 00:51:36;;;;;;;28.15;20.95;;;18.10;99.90;;;;;;4980728;28;20050;-70
2023/07/28 00:54:05;;;;;;;27.33;20.10;;;18.10;99.90;;;;;;4996918;28;20108;-70
2023/07/28 00:56:31;;;;;;;27.92;20.17;;;18.10;99.90;;;;;;5013037;28;20081;-67
2023/07/28 00:58:57;;;;;;;29.25;20.75;;;18.10;99.90;;;;;;4996867;28;20042;-68
2023/07/28 01:01:23;;;;;;;24.60;19.33;;;18.10;99.90;;;;;;4996883;28;20076;-67
2023/07/28 01:03:50;;;;;;;25.77;19.90;;;18.10;99.90;;;;;;4996762;28;20038;-68
2023/07/28 01:06:47;;;;;;;30.13;22.40;;;18.10;99.90;;;;;;5012971;28;20125;-67
2023/07/28 01:09:20;;;;;;;33.08;22.05;;;18.10;99.90;;;;;;4996724;28;20050;-67
2023/07/28 01:11:57;;;;;;;27.80;21.02;;;18.00;99.90;;;;;;4996463;28;20053;-67
2023/07/28 01:14:23;;;;;;;26.85;21.15;;;18.10;99.90;;;;;;4996630;28;20053;-67
2023/07/28 01:16:49;;;;;;;29.65;22.70;;;18.10;99.90;;;;;;4996220;28;20053;-67
2023/07/28 01:19:18;;;;;;;31.92;22.75;;;18.00;99.90;;;;;;4980314;28;20074;-67
2023/07/28 01:21:51;;;;;;;28.60;22.08;;;18.00;99.90;;;;;;4996401;28;20092;-67
2023/07/28 01:24:42;;;;;;;35.78;23.13;;;18.10;99.90;;;;;;4996414;28;20049;-67
2023/07/28 01:27:09;;;;;;;33.80;23.83;;;18.10;99.90;;;;;;4966918;28;20050;-67
2023/07/28 01:29:35;;;;;;;32.53;23.35;;;18.10;99.90;;;;;;4996395;28;20088;-67
2023/07/28 01:32:01;;;;;;;34.53;23.65;;;18.10;99.90;;;;;;4996102;28;20091;-67
2023/07/28 01:34:26;;;;;;;34.60;24.30;;;18.00;99.90;;;;;;4996323;28;20073;-67
2023/07/28 01:36:52;;;;;;;28.65;22.15;;;18.00;99.90;;;;;;4996159;28;20085;-67
2023/07/28 01:39:18;;;;;;;33.45;23.50;;;18.00;99.90;;;;;;4979895;28;20104;-67
2023/07/28 01:41:44;;;;;;;41.28;26.13;;;18.10;99.90;;;;;;4996010;28;20042;-67
2023/07/28 01:44:10;;;;;;;37.75;23.40;;;18.10;99.90;;;;;;5012717;28;20516;-67
2023/07/28 01:46:36;;;;;;;34.53;23.30;;;18.10;99.90;;;;;;4996019;28;20049;-67
2023/07/28 01:49:02;;;;;;;34.83;23.52;;;18.10;99.90;;;;;;4996291;28;20410;-68
2023/07/28 01:51:27;;;;;;;33.83;23.80;;;18.10;99.90;;;;;;4996265;28;20037;-67
2023/07/28 01:54:12;;;;;;;33.53;24.08;;;18.00;99.90;;;;;;4963630;28;20049;-68
2023/07/28 01:56:38;;;;;;;40.03;25.63;;;18.10;99.90;;;;;;4995778;28;20042;-67
2023/07/28 01:59:03;;;;;;;40.20;24.65;;;18.00;99.90;;;;;;4995884;28;20041;-67
2023/07/28 02:01:29;;;;;;;32.65;23.48;;;18.00;99.90;;;;;;4996012;28;20397;-68
2023/07/28 02:03:55;;;;;;;34.45;25.00;;;18.10;99.90;;;;;;4995746;28;20050;-67
2023/07/28 02:06:20;;;;;;;35.17;24.58;;;18.00;99.90;;;;;;4996029;28;20042;-70
2023/07/28 02:08:46;;;;;;;33.15;23.42;;;18.10;99.90;;;;;;4995672;28;20173;-70
2023/07/28 02:11:12;;;;;;;33.75;23.83;;;18.10;99.90;;;;;;4979840;28;20061;-70
2023/07/28 02:13:37;;;;;;;35.03;24.30;;;18.00;99.90;;;;;;4995739;28;20041;-70
2023/07/28 02:16:03;;;;;;;36.67;24.67;;;18.10;99.90;;;;;;4995480;28;20057;-69
2023/07/28 02:18:29;;;;;;;39.65;26.52;;;18.00;99.90;;;;;;4981270;28;20050;-70
2023/07/28 02:20:55;;;;;;;37.65;25.33;;;18.00;99.90;;;;;;4983566;28;20482;-70
2023/07/28 02:23:20;;;;;;;35.65;25.00;;;18.00;99.90;;;;;;4999661;28;20042;-70
2023/07/28 02:25:46;;;;;;;40.40;25.10;;;18.00;99.90;;;;;;4999541;28;20042;-70
2023/07/28 02:28:12;;;;;;;35.35;25.00;;;18.00;99.90;;;;;;5016022;28;20064;-70
2023/07/28 02:30:38;;;;;;;33.72;23.98;;;18.00;99.90;;;;;;4983303;28;20124;-70
2023/07/28 02:33:03;;;;;;;39.80;25.33;;;18.00;99.90;;;;;;4999414;28;20038;-70
2023/07/28 02:35:31;;;;;;;37.50;26.73;;;18.10;99.90;;;;;;4999376;28;20061;-70
2023/07/28 02:37:57;;;;;;;45.85;26.67;;;18.10;99.90;;;;;;5015927;28;20049;-70
2023/07/28 02:40:23;;;;;;;42.25;28.10;;;18.00;99.90;;;;;;4999615;28;20046;-70
2023/07/28 02:42:48;;;;;;;38.47;26.30;;;18.00;99.90;;;;;;4983002;28;20103;-70
2023/07/28 02:45:14;;;;;;;37.67;26.02;;;18.00;99.90;;;;;;4999271;28;20042;-71
2023/07/28 02:47:40;;;;;;;41.25;27.42;;;18.00;99.90;;;;;;4983329;28;20045;-70
2023/07/28 02:50:06;;;;;;;50.75;30.85;;;18.00;99.90;;;;;;4999151;28;20081;-70
2023/07/28 02:52:31;;;;;;;37.08;27.02;;;18.00;99.90;;;;;;4982953;28;20129;-69
2023/07/28 02:54:57;;;;;;;38.95;27.95;;;18.00;99.90;;;;;;4998983;28;20565;-69
2023/07/28 02:57:23;;;;;;;33.42;24.65;;;18.10;99.90;;;;;;4998863;28;20046;-69
2023/07/28 02:59:48;;;;;;;38.00;25.92;;;18.00;99.90;;;;;;4998980;28;20042;-69
2023/07/28 03:02:14;;;;;;;41.83;27.98;;;18.00;99.90;;;;;;4999199;28;20140;-70
2023/07/28 03:04:40;;;;;;;36.80;27.05;;;18.00;99.90;;;;;;4983032;28;20088;-69
2023/07/28 03:07:06;;;;;;;36.20;25.95;;;18.00;99.90;;;;;;4998667;28;20052;-70
2023/07/28 03:09:32;;;;;;;42.38;26.42;;;18.00;99.90;;;;;;4999056;28;20045;-70
2023/07/28 03:11:57;;;;;;;36.58;26.45;;;18.00;99.90;;;;;;4998967;28;20050;-70
2023/07/28 03:14:23;;;;;;;42.90;27.65;;;18.00;99.90;;;;;;4982520;28;20049;-70
2023/07/28 03:16:49;;;;;;;38.97;25.50;;;18.00;99.90;;;;;;5014885;28;20085;-68
2023/07/28 03:19:15;;;;;;;33.95;24.02;;;18.00;99.90;;;;;;4982340;28;20050;-68
2023/07/28 03:21:41;;;;;;;36.55;25.40;;;18.00;99.90;;;;;;4998725;28;20053;-67
2023/07/28 03:24:07;;;;;;;35.08;25.10;;;18.00;99.90;;;;;;4998515;28;20101;-67
2023/07/28 03:26:32;;;;;;;31.90;24.08;;;18.10;99.90;;;;;;4998524;28;20390;-67
2023/07/28 03:28:58;;;;;;;40.10;26.13;;;18.00;99.90;;;;;;4998179;28;20509;-67
2023/07/28 03:31:24;;;;;;;32.67;25.08;;;18.00;99.90;;;;;;4998499;28;20518;-67
2023/07/28 03:33:49;;;;;;;32.22;23.55;;;18.00;99.90;;;;;;4982538;28;20042;-68
2023/07/28 03:36:15;;;;;;;34.60;24.75;;;18.00;99.90;;;;;;4998346;28;20125;-67
2023/07/28 03:38:41;;;;;;;33.53;24.48;;;18.10;99.90;;;;;;4998091;28;20049;-67
2023/07/28 03:41:07;;;;;;;32.97;24.08;;;18.00;99.90;;;;;;4998324;28;20468;-67
2023/07/28 03:43:32;;;;;;;35.10;24.05;;;18.00;99.90;;;;;;5014564;28;20042;-68
2023/07/28 03:45:58;;;;;;;32.58;23.63;;;18.10;99.90;;;;;;4998199;28;20069;-67
2023/07/28 03:48:24;;;;;;;37.10;23.98;;;18.00;99.90;;;;;;4998494;28;20077;-67
2023/07/28 03:50:49;;;;;;;34.15;23.60;;;18.00;99.90;;;;;;4998093;28;20041;-68
2023/07/28 03:53:15;;;;;;;34.28;23.63;;;18.00;99.90;;;;;;4997992;28;20069;-67
2023/07/28 03:55:41;;;;;;;34.72;24.20;;;18.00;99.90;;;;;;4997961;28;20073;-67
2023/07/28 03:58:06;;;;;;;36.05;25.02;;;18.00;99.90;;;;;;4998092;28;20050;-68
2023/07/28 04:00:33;;;;;;;38.28;27.02;;;18.10;99.90;;;;;;4997842;28;20053;-67
2023/07/28 04:02:58;;;;;;;40.60;26.17;;;18.00;99.90;;;;;;4998192;28;20042;-67
2023/07/28 04:05:24;;;;;;;33.35;24.40;;;18.00;99.90;;;;;;4997871;28;20559;-67
2023/07/28 04:07:50;;;;;;;37.58;24.83;;;18.00;99.90;;;;;;4997896;28;20486;-67
2023/07/28 04:10:15;;;;;;;39.85;25.58;;;18.00;99.90;;;;;;4997862;28;20042;-67
2023/07/28 04:12:41;;;;;;;34.95;23.92;;;18.00;99.90;;;;;;4981501;28;20050;-67
2023/07/28 04:15:07;;;;;;;35.25;25.35;;;18.00;99.90;;;;;;4997591;28;20081;-67
2023/07/28 04:17:33;;;;;;;36.65;26.30;;;18.00;99.90;;;;;;4997421;28;20064;-69
2023/07/28 04:19:59;;;;;;;35.53;25.55;;;18.00;99.90;;;;;;4997571;28;20042;-68
2023/07/28 04:22:25;;;;;;;31.40;22.58;;;18.00;99.90;;;;;;4981465;28;20386;-68
2023/07/28 04:24:50;;;;;;;36.63;24.73;;;18.10;99.90;;;;;;4997412;28;20073;-68
2023/07/28 04:27:16;;;;;;;38.90;24.42;;;18.00;99.90;;;;;;4997794;28;20088;-71
2023/07/28 04:29:42;;;;;;;37.78;25.95;;;18.00;99.90;;;;;;4981343;28;20037;-71
2023/07/28 04:32:08;;;;;;;41.47;26.40;;;18.00;99.90;;;;;;4997127;28;20133;-71
2023/07/28 04:34:34;;;;;;;37.58;26.20;;;18.10;99.90;;;;;;4997574;28;20397;-71
2023/07/28 04:37:00;;;;;;;36.97;26.00;;;18.10;99.90;;;;;;4997346;28;20564;-70
2023/07/28 04:39:25;;;;;;;38.58;25.92;;;18.10;99.90;;;;;;5013616;28;20084;-70
2023/07/28 04:41:51;;;;;;;32.90;22.98;;;18.10;99.90;;;;;;4996873;28;20069;-70
2023/07/28 04:44:18;;;;;;;39.17;26.05;;;18.10;99.90;;;;;;4997230;28;20046;-71
2023/07/28 04:46:43;;;;;;;38.95;25.00;;;18.10;99.90;;;;;;4996920;28;20046;-68
2023/07/28 04:49:09;;;;;;;38.38;26.20;;;18.10;99.90;;;;;;5013681;28;20253;-67
2023/07/28 04:51:35;;;;;;;37.78;26.30;;;18.10;99.90;;;;;;4996969;28;20042;-67
2023/07/28 04:54:00;;;;;;;31.50;24.05;;;18.10;99.90;;;;;;4996891;28;20080;-67
2023/07/28 04:56:26;;;;;;;36.83;26.63;;;18.20;99.90;;;;;;4996713;28;20071;-68
2023/07/28 04:58:52;;;;;;;39.80;26.30;;;18.10;99.90;;;;;;4997032;28;20108;-67
2023/07/28 05:01:17;;;;;;;33.40;24.52;;;18.20;99.90;;;;;;5012912;28;20041;-67
2023/07/28 05:03:43;;;;;;;34.45;25.13;;;18.20;99.90;;;;;;4996920;28;20133;-67
2023/07/28 05:06:09;;;;;;;33.10;23.63;;;18.20;99.90;;;;;;5013282;28;20042;-67
2023/07/28 05:08:36;;;;;;;36.60;24.85;;;18.20;99.90;;;;;;4980491;28;20052;-67
2023/07/28 05:11:01;;;;;;;36.83;24.80;;;18.20;99.90;;;;;;4996919;28;20124;-66
2023/07/28 05:13:27;;;;;;;31.60;24.02;;;18.20;99.90;;;;;;4997095;28;20042;-67
2023/07/28 05:15:53;;;;;;;38.10;25.42;;;18.20;99.90;;;;;;4996269;28;20046;-67
2023/07/28 05:18:19;;;;;;;32.78;23.25;;;18.20;99.90;;;;;;4979948;28;20127;-67
2023/07/28 05:20:44;;;;;;;35.70;23.95;;;18.20;99.90;;;;;;4996407;28;20072;-67
2023/07/28 05:23:10;;;;;;;34.13;24.52;;;18.20;99.90;;;;;;4980225;28;20038;-67
2023/07/28 05:25:36;;;;;;;35.47;25.15;;;18.20;99.90;;;;;;4996242;28;20046;-67
2023/07/28 05:28:01;;;;;;;35.70;25.88;;;18.20;99.90;;;;;;4996288;28;20049;-67
2023/07/28 05:30:27;;;;;;;36.33;25.83;;;18.20;99.90;;;;;;4996149;28;20075;-67
2023/07/28 05:32:54;;;;;;;40.63;24.58;;;18.30;99.90;;;;;;4996171;28;20409;-67
2023/07/28 05:35:20;;;;;;;40.95;26.77;;;18.20;99.90;;;;;;4979837;28;20049;-67
2023/07/28 05:37:46;;;;;;;35.13;25.20;;;18.30;99.90;;;;;;5012523;28;20041;-67
2023/07/28 05:40:12;;;;;;;38.83;25.10;;;18.30;99.90;;;;;;4996082;28;20416;-67
2023/07/28 05:42:38;;;;;;;33.42;24.30;;;18.30;99.90;;;;;;4996026;28;20038;-67
2023/07/28 05:45:04;;;;;;;37.85;25.27;;;18.30;99.90;;;;;;4996032;28;20532;-67
2023/07/28 05:47:30;;;;;;;36.08;24.95;;;18.30;99.90;;;;;;5013703;28;20042;-67
2023/07/28 05:49:56;;;;;;;36.35;23.55;;;18.30;99.90;;;;;;4996183;28;20054;-69
2023/07/28 05:52:25;;;;;;;32.47;22.65;;;18.40;99.90;;;;;;4979780;28;20052;-67
2023/07/28 05:54:50;;;;;;;30.25;22.42;;;18.40;99.90;;;;;;4980398;28;20045;-68
2023/07/28 05:57:16;;;;;;;34.67;24.70;;;18.40;99.90;;;;;;4995837;28;20169;-68
2023/07/28 05:59:42;;;;;;;35.47;22.00;;;18.50;99.90;;;;;;4979500;28;20505;-68
2023/07/28 06:02:08;;;;;;;31.52;22.73;;;18.50;99.90;;;;;;4995975;28;20037;-68
2023/07/28 06:04:33;;;;;;;33.35;21.95;;;18.60;99.90;;;;;;5012229;28;20409;-67
2023/07/28 06:06:59;;;;;;;32.30;21.95;;;18.60;99.90;;;;;;4979535;28;20469;-68
2023/07/28 06:09:25;;;;;;;33.53;24.10;;;18.60;99.90;;;;;;4996086;28;20050;-67
2023/07/28 06:11:50;;;;;;;28.10;22.33;;;18.60;99.90;;;;;;4995785;28;20044;-68
2023/07/28 06:14:16;;;;;;;37.50;25.90;;;18.70;99.90;;;;;;4995905;28;20049;-67
2023/07/28 06:16:42;;;;;;;32.25;24.10;;;18.60;99.90;;;;;;4979528;28;20037;-68
2023/07/28 06:19:08;;;;;;;36.45;25.75;;;18.70;99.90;;;;;;4995476;28;20050;-67
2023/07/28 06:21:34;;;;;;;30.10;22.70;;;18.70;99.90;;;;;;5011929;28;20103;-67
2023/07/28 06:23:59;;;;;;;36.42;24.05;;;18.70;99.90;;;;;;4995421;28;20034;-68
2023/07/28 06:26:25;;;;;;;32.55;21.95;;;18.80;99.90;;;;;;5012047;28;20046;-68
2023/07/28 06:28:51;;;;;;;30.33;22.50;;;18.80;99.90;;;;;;4995398;28;20475;-68
2023/07/28 06:31:17;;;;;;;28.40;20.90;;;18.80;99.90;;;;;;4995750;28;20065;-68
2023/07/28 06:33:42;;;;;;;34.45;23.83;;;18.90;99.90;;;;;;4995842;28;20038;-68
2023/07/28 06:36:08;;;;;;;29.50;21.73;;;18.90;99.90;;;;;;4995387;28;20042;-68
2023/07/28 06:38:34;;;;;;;30.27;21.95;;;18.90;99.90;;;;;;4995539;28;20061;-68
2023/07/28 06:41:00;;;;;;;28.58;21.98;;;19.00;99.90;;;;;;4979242;28;20034;-68
2023/07/28 06:43:26;;;;;;;29.58;20.00;;;19.00;99.90;;;;;;5011976;28;20121;-67
2023/07/28 06:45:53;;;;;;;30.02;20.48;;;19.00;99.90;;;;;;5011890;28;20045;-68
2023/07/28 06:48:18;;;;;;;30.10;21.02;;;19.10;99.90;;;;;;4995499;28;20065;-70
2023/07/28 06:50:44;;;;;;;24.83;20.10;;;19.10;99.90;;;;;;4995394;28;20037;-70
2023/07/28 06:53:10;;;;;;;27.83;19.88;;;19.20;99.90;;;;;;4995427;28;20073;-70
2023/07/28 06:55:38;;;;;;;21.27;17.70;;;19.30;99.90;;;;;;4995251;28;20052;-70
2023/07/28 06:58:08;;;;;;;26.75;19.30;;;19.30;99.90;;;;;;5011749;28;20045;-70
2023/07/28 07:00:35;;;;;;;25.98;17.95;;;19.40;99.90;;;;;;4995542;28;20398;-71
2023/07/28 07:03:01;;;;;;;21.05;16.80;;;19.40;99.90;;;;;;5011511;28;20132;-70
2023/07/28 07:05:26;;;;;;;21.85;16.80;;;19.40;99.90;;;;;;4982385;28;20044;-70
2023/07/28 07:07:54;;;;;;;22.85;16.65;;;19.40;99.90;;;;;;4999130;28;20096;-68
2023/07/28 07:10:20;;;;;;;22.05;16.85;;;19.40;99.90;;;;;;4982947;28;20068;-67
2023/07/28 07:12:46;;;;;;;25.25;17.27;;;19.40;99.90;;;;;;4999014;28;20104;-68
2023/07/28 07:15:12;;;;;;;20.80;16.00;;;19.50;99.90;;;;;;4998662;28;20042;-68
2023/07/28 07:17:37;;;;;;;20.85;16.00;;;19.50;99.90;;;;;;5016320;28;20166;-68
2023/07/28 07:20:04;;;;;;;19.95;15.25;;;19.50;99.90;;;;;;5015191;28;20080;-67
2023/07/28 07:22:29;;;;;;;20.15;14.65;;;19.50;99.90;;;;;;5015108;28;20042;-68
2023/07/28 07:24:56;;;;;;;20.95;15.23;;;19.60;99.90;;;;;;4998636;28;20341;-67
2023/07/28 07:27:23;;;;;;;18.90;14.05;;;19.70;99.90;;;;;;4998469;28;20041;-70
2023/07/28 07:29:49;;;;;;;16.67;14.05;;;19.80;99.90;;;;;;4998738;28;20049;-71
2023/07/28 07:32:16;;;;;;;17.42;13.27;;;19.90;99.90;;;;;;4998994;28;20045;-70
2023/07/28 07:34:42;;;;;;;21.27;15.07;;;20.10;99.90;;;;;;5015052;28;20046;-71
2023/07/28 07:37:09;;;;;;;17.95;12.55;;;20.60;99.90;;;;;;4998361;28;20121;-71
2023/07/28 07:39:36;;;;;;;16.00;11.40;;;20.90;99.90;;;;;;4998463;28;20042;-70
2023/07/28 07:42:01;;;;;;;18.60;11.95;;;21.10;99.90;;;;;;4998615;28;20080;-71
2023/07/28 07:44:27;;;;;;;18.27;11.93;;;21.20;99.90;;;;;;5015063;28;20081;-70
2023/07/28 07:46:53;;;;;;;16.60;11.98;;;21.30;99.90;;;;;;4982264;28;20089;-71
2023/07/28 07:49:19;;;;;;;13.45;10.07;;;21.30;99.90;;;;;;4982607;28;20124;-71
2023/07/28 07:51:45;;;;;;;13.60;10.18;;;21.30;99.90;;;;;;4999167;28;20478;-71
2023/07/28 07:54:15;;;;;;;14.75;10.35;;;21.70;99.90;;;;;;4998358;28;20046;-71
2023/07/28 07:56:41;;;;;;;15.85;10.90;;;22.00;99.90;;;;;;4998588;28;20077;-71
2023/07/28 07:59:07;;;;;;;13.50;9.35;;;22.30;99.90;;;;;;4998164;28;20088;-70
2023/07/28 08:01:33;;;;;;;16.25;10.18;;;22.50;99.90;;;;;;4998688;28;20041;-71
2023/07/28 08:03:59;;;;;;;14.38;9.27;;;22.80;99.90;;;;;;4982167;28;20042;-71
2023/07/28 08:06:25;;;;;;;13.77;8.52;;;22.80;99.90;;;;;;4981593;28;20092;-72
2023/07/28 08:08:52;;;;;;;11.38;7.85;;;22.70;99.90;;;;;;4997992;28;20144;-71
2023/07/28 08:11:18;;;;;;;12.10;8.60;;;22.60;99.90;;;;;;4997986;28;20042;-71
2023/07/28 08:13:45;;;;;;;12.23;8.40;;;22.60;99.90;;;;;;4981826;28;20052;-71
2023/07/28 08:16:10;;;;;;;14.13;8.23;;;22.40;99.90;;;;;;4980156;28;20103;-71
2023/07/28 08:18:36;;;;;;;13.13;8.30;;;22.30;99.90;;;;;;4981226;28;20054;-71
2023/07/28 08:21:02;;;;;;;15.38;9.70;;;22.00;99.90;;;;;;4997708;28;20034;-71
2023/07/28 08:23:28;;;;;;;15.02;9.38;;;21.80;99.90;;;;;;4997562;28;20038;-70
2023/07/28 08:25:53;;;;;;;16.27;9.93;;;21.70;99.90;;;;;;5014097;28;20076;-71
2023/07/28 08:28:19;;;;;;;14.32;9.32;;;21.80;99.90;;;;;;4997319;28;20096;-71
2023/07/28 08:30:52;;;;;;;13.43;8.80;;;21.80;99.90;;;;;;4997384;28;20061;-70
2023/07/28 08:33:18;;;;;;;13.32;9.68;;;21.80;99.90;;;;;;4930669;28;20045;-71
2023/07/28 08:35:43;;;;;;;14.27;9.00;;;21.80;99.90;;;;;;4997587;28;20065;-71
2023/07/28 08:38:09;;;;;;;11.35;7.82;;;22.00;99.90;;;;;;4997293;28;20053;-71
2023/07/28 08:40:36;;;;;;;12.13;8.02;;;22.20;99.90;;;;;;4981044;28;20049;-70
2023/07/28 08:43:02;;;;;;;13.38;8.45;;;22.30;99.90;;;;;;4997434;28;20079;-71
2023/07/28 08:45:28;;;;;;;12.18;8.45;;;22.40;99.90;;;;;;4996212;28;20390;-71
2023/07/28 08:47:54;;;;;;;12.70;8.65;;;22.40;99.90;;;;;;4980604;28;20096;-71
2023/07/28 08:50:20;;;;;;;13.90;9.30;;;22.30;99.90;;;;;;4996788;28;20042;-71
2023/07/28 08:52:46;;;;;;;13.50;8.75;;;22.20;99.90;;;;;;4964558;28;20061;-71
2023/07/28 08:55:13;;;;;;;12.63;7.82;;;22.10;99.90;;;;;;4980834;28;20443;-71
2023/07/28 08:57:38;;;;;;;14.50;8.02;;;22.00;99.90;;;;;;4996843;28;20074;-71
2023/07/28 09:00:13;;;;;;;11.50;7.82;;;22.00;99.90;;;;;;4996813;28;20080;-71
2023/07/28 09:02:40;;;;;;;12.35;7.78;;;22.10;99.90;;;;;;4996799;28;20042;-71
2023/07/28 09:05:07;;;;;;;11.45;6.65;;;22.20;99.90;;;;;;4996709;28;20046;-71
2023/07/28 09:07:36;;;;;;;11.02;6.72;;;22.30;99.90;;;;;;4980917;28;20493;-71
2023/07/28 09:10:03;;;;;;;14.82;7.03;;;22.50;99.90;;;;;;4996906;28;20052;-70
2023/07/28 09:12:33;;;;;;;12.27;7.70;;;22.60;99.90;;;;;;4980481;28;20038;-71
2023/07/28 09:14:58;;;;;;;10.63;6.40;;;22.50;99.90;;;;;;4996585;28;20056;-71
2023/07/28 09:17:24;;;;;;;10.15;6.22;;;22.50;99.90;;;;;;4996070;28;20136;-71
2023/07/28 09:19:55;;;;;;;10.05;6.40;;;22.50;99.90;;;;;;4996403;28;20561;-70
2023/07/28 09:22:21;;;;;;;10.27;6.35;;;22.50;99.90;;;;;;4996424;28;20069;-70
2023/07/28 09:24:47;;;;;;;10.98;5.82;;;22.50;99.90;;;;;;4996245;28;20084;-71
2023/07/28 09:27:21;;;;;;;9.77;6.05;;;22.80;99.90;;;;;;4996318;28;20133;-72
2023/07/28 09:29:51;;;;;;;9.75;4.88;;;23.20;99.90;;;;;;4996269;28;20045;-71
2023/07/28 09:32:32;;;;;;;7.88;4.53;;;23.40;99.90;;;;;;4996428;28;20042;-72
2023/07/28 09:35:09;;;;;;;8.73;4.70;;;23.50;99.90;;;;;;4996511;28;20087;-71
2023/07/28 09:37:40;;;;;;;10.30;4.63;;;23.40;99.90;;;;;;4996111;28;20046;-72
2023/07/28 09:40:12;;;;;;;9.20;4.53;;;23.30;99.90;;;;;;4996177;28;20172;-72
2023/07/28 09:42:42;;;;;;;10.18;4.68;;;23.40;99.90;;;;;;4996114;28;20049;-72
2023/07/28 09:45:09;;;;;;;9.98;4.50;;;23.60;99.90;;;;;;4995872;28;20042;-72
2023/07/28 09:47:36;;;;;;;9.13;4.57;;;23.70;99.90;;;;;;4996126;28;20051;-72
2023/07/28 09:50:08;;;;;;;10.00;4.50;;;23.60;99.90;;;;;;4996325;28;20378;-72
2023/07/28 09:52:41;;;;;;;8.15;4.30;;;23.50;99.90;;;;;;4996275;28;20042;-72
2023/07/28 09:55:10;;;;;;;7.78;3.83;;;23.30;99.90;;;;;;4996348;28;20046;-72
2023/07/28 09:57:57;;;;;;;8.32;4.10;;;23.30;99.90;;;;;;4996115;28;20133;-72
2023/07/28 10:00:23;;;;;;;9.65;3.85;;;23.60;99.90;;;;;;4996170;28;20037;-71
2023/07/28 10:02:50;;;;;;;6.90;3.53;;;23.80;99.90;;;;;;4995870;28;20038;-70
2023/07/28 10:05:16;;;;;;;9.02;4.43;;;24.10;99.90;;;;;;4995791;28;20037;-71
2023/07/28 10:07:44;;;;;;;9.82;4.90;;;24.20;99.90;;;;;;4995842;28;20469;-70
2023/07/28 10:10:12;;;;;;;10.27;5.30;;;24.00;99.90;;;;;;5013398;28;20077;-70
2023/07/28 10:12:52;;;;;;;9.85;5.00;;;23.80;99.90;;;;;;4979838;28;20037;-70
2023/07/28 10:15:27;;;;;;;10.63;4.75;;;23.80;99.90;;;;;;4995868;28;20041;-70
2023/07/28 10:17:57;;;;;;;10.70;5.43;;;23.70;99.90;;;;;;4995531;28;20072;-72
2023/07/28 10:20:41;;;;;;;8.77;5.17;;;23.70;99.90;;;;;;4995940;28;20077;-71
2023/07/28 10:23:13;;;;;;;8.40;4.60;;;23.70;99.90;;;;;;4995821;28;20078;-71
2023/07/28 10:25:40;;;;;;;;;;;24.00;99.90;;;;;;4996116;28;20038;-70
2023/07/28 10:28:08;;;;;;;10.50;4.57;;;24.10;99.90;;;;;;4995641;28;19979;-67
2023/07/28 10:30:52;;;;;;;7.88;3.90;;;24.10;99.90;;;;;;4995733;28;20042;-67
2023/07/28 10:33:43;;;;;;;7.13;3.80;;;24.00;99.90;;;;;;4979189;28;20056;-67
2023/07/28 10:36:26;;;;;;;9.57;4.43;;;23.80;99.90;;;;;;4995868;28;20096;-67
2023/07/28 10:39:04;;;;;;;9.52;4.70;;;23.40;99.90;;;;;;4996242;28;20042;-67
2023/07/28 10:41:32;;;;;;;12.02;4.93;;;23.30;99.90;;;;;;4999755;28;20482;-67
2023/07/28 10:43:58;;;;;;;9.50;5.10;;;23.30;99.90;;;;;;4999304;28;20038;-67
2023/07/28 10:46:26;;;;;;;10.85;5.15;;;23.50;99.90;;;;;;5000106;28;20363;-67
2023/07/28 10:48:53;;;;;;;9.45;5.50;;;23.50;99.90;;;;;;4999293;28;20046;-66
2023/07/28 10:51:29;;;;;;;11.25;6.03;;;23.50;99.90;;;;;;4999343;28;20057;-66
2023/07/28 10:53:57;;;;;;;11.07;5.72;;;23.30;99.90;;;;;;4999288;28;20046;-66
2023/07/28 10:56:23;;;;;;;9.25;5.90;;;23.20;99.90;;;;;;4999447;28;20405;-66
2023/07/28 10:59:04;;;;;;;9.73;6.15;;;23.50;99.90;;;;;;4983236;28;20119;-66
2023/07/28 11:01:33;;;;;;;9.35;5.80;;;23.90;99.90;;;;;;4983445;28;20489;-67
2023/07/28 11:04:19;;;;;;;10.48;6.28;;;24.20;99.90;;;;;;4999325;28;20366;-66
2023/07/28 11:06:47;;;;;;;12.68;5.45;;;24.50;99.90;;;;;;4999042;28;20129;-67
2023/07/28 11:09:17;;;;;;;10.35;5.40;;;24.40;99.90;;;;;;4998898;28;20046;-66
2023/07/28 11:11:43;;;;;;;9.77;5.57;;;24.30;99.90;;;;;;4999280;28;20042;-66
2023/07/28 11:14:09;;;;;;;10.07;5.45;;;24.20;99.90;;;;;;4999069;28;20489;-66
2023/07/28 11:16:37;;;;;;;10.13;5.03;;;24.00;99.90;;;;;;4999059;28;20046;-67
2023/07/28 11:19:07;;;;;;;9.18;5.28;;;23.90;99.90;;;;;;4998567;28;20078;-66
2023/07/28 11:21:39;;;;;;;9.73;6.10;;;23.80;99.90;;;;;;4998687;28;20041;-67
2023/07/28 11:24:09;;;;;;;12.40;6.88;;;24.00;99.90;;;;;;4998741;28;20053;-67
2023/07/28 11:26:39;;;;;;;11.13;6.63;;;24.30;99.90;;;;;;4999122;28;20049;-70
2023/07/28 11:29:05;;;;;;;9.88;7.18;;;24.40;99.90;;;;;;4998932;28;20080;-70
2023/07/28 11:31:33;;;;;;;10.50;6.95;;;24.30;99.90;;;;;;4998829;28;20490;-70
2023/07/28 11:33:58;;;;;;;10.10;7.68;;;24.10;99.90;;;;;;4982221;28;20057;-70
2023/07/28 11:36:25;;;;;;;10.65;7.18;;;23.80;99.90;;;;;;4998378;28;20038;-67
2023/07/28 11:38:52;;;;;;;10.95;7.53;;;23.70;99.90;;;;;;5016032;28;20116;-66
2023/07/28 11:41:19;;;;;;;10.75;7.22;;;23.60;99.90;;;;;;4998379;28;20383;-66
2023/07/28 11:43:48;;;;;;;10.65;6.70;;;23.60;99.90;;;;;;4998258;28;20046;-66
2023/07/28 11:46:39;;;;;;;11.77;6.70;;;23.80;99.90;;;;;;4982570;28;20042;-66
2023/07/28 11:49:11;;;;;;;9.40;6.93;;;23.90;99.90;;;;;;4998595;28;20038;-66
2023/07/28 11:51:43;;;;;;;10.40;6.88;;;24.10;99.90;;;;;;4997995;28;20046;-66
2023/07/28 11:54:13;;;;;;;12.30;7.95;;;24.30;99.90;;;;;;4998149;28;20038;-66
2023/07/28 11:56:44;;;;;;;9.52;6.75;;;24.60;99.90;;;;;;4997954;28;20053;-65
2023/07/28 11:59:11;;;;;;;8.63;6.43;;;24.70;99.90;;;;;;4998050;28;20042;-66
2023/07/28 12:01:56;;;;;;;10.68;6.63;;;24.70;99.90;;;;;;4998281;28;20490;-66
2023/07/28 12:04:28;;;;;;;10.20;6.95;;;24.70;99.90;;;;;;4997980;28;20046;-66
2023/07/28 12:07:11;;;;;;;10.07;7.47;;;24.60;99.90;;;;;;4998078;28;20485;-66
2023/07/28 12:09:46;;;;;;;9.93;8.05;;;24.60;99.90;;;;;;4997846;28;20045;-66
2023/07/28 12:12:12;;;;;;;10.65;7.60;;;24.70;99.90;;;;;;4981862;28;20482;-66
2023/07/28 12:14:39;;;;;;;10.20;7.40;;;24.90;99.90;;;;;;5015252;28;20045;-66
2023/07/28 12:17:25;;;;;;;12.57;7.57;;;25.10;99.90;;;;;;4981741;28;20587;-66
2023/07/28 12:20:01;;;;;;;9.45;6.75;;;25.40;99.90;;;;;;4981906;28;20057;-66
2023/07/28 12:22:27;;;;;;;9.52;6.65;;;25.40;99.90;;;;;;4997583;28;20081;-66
2023/07/28 12:24:54;;;;;;;8.23;6.43;;;25.50;99.90;;;;;;4997472;28;20049;-66
2023/07/28 12:27:23;;;;;;;9.13;5.47;;;25.50;99.90;;;;;;4997713;28;20375;-66
2023/07/28 12:29:49;;;;;;;9.18;5.60;;;25.70;99.90;;;;;;4981822;28;20065;-66
2023/07/28 12:32:15;;;;;;;9.10;5.50;;;25.90;99.90;;;;;;4981317;28;20038;-66
2023/07/28 12:34:41;;;;;;;8.10;5.70;;;26.10;99.90;;;;;;4997716;28;20041;-66